Norbank — PGIS — position and weather

sailwx.info

Track history (hours):
 
Tides and Currents Weather Stations Pressure Air Temp Water Temp Dewpoint Dewpoint Depression Visibility Wind Speed Wind Dir Waves Ship Positions

Norbank

Operator: P & O Ferries

Last reported at 2016-Feb-06 23:33 UTC. Time now 2016-Feb-07 23:46 UTC.
Position N 53°33' W 003°50'.

Length 167 m; draft 5.6 m.

Type: Ship (hazmat cat A). MMSI: 246213000.

Date/timePositionNaut miles runAvg speedWind from/ knotsBaromVisibWave heightAir tempDewpointWater temp
2016-Feb-06 23:33N 53°33' W 003°50'1615.5
2016-Feb-06 22:33N 53°33' W 003°23'1414.4
2016-Feb-06 21:33N 53°27' W 003°01'1 0.5
2016-Feb-06 20:33N 53°27' W 003°01'0 0.0
2016-Feb-06 19:33N 53°27' W 003°01'0 0.0
2016-Feb-06 18:33N 53°27' W 003°01'0 0.0
2016-Feb-06 17:33N 53°27' W 003°01'0 0.4
2016-Feb-06 16:31N 53°27' W 003°01'6 5.7
2016-Feb-06 15:33N 53°31' W 003°07'1716.6
2016-Feb-06 14:33N 53°32' W 003°35'1918.6
2016-Feb-06 13:33N 53°34' W 004°06'12 0.8
2016-Feb-05 23:33N 53°34' W 003°46'1717.0
2016-Feb-05 22:33N 53°32' W 003°18'1111.2
2016-Feb-05 21:34N 53°27' W 003°01'0 0.4
2016-Feb-05 20:33N 53°27' W 003°01'0 0.0
2016-Feb-05 19:33N 53°27' W 003°01'0 0.0
2016-Feb-05 18:33N 53°27' W 003°01'0 0.0
2016-Feb-05 17:33N 53°27' W 003°01'0 0.2
2016-Feb-05 16:33N 53°27' W 003°01'4 4.2
2016-Feb-05 15:33N 53°30' W 003°06'1717.0
2016-Feb-05 14:33N 53°32' W 003°35'2019.6
2016-Feb-05 13:32N 53°35' W 004°08'15 1.0
2016-Feb-04 23:33N 53°33' W 003°43'1717.4
2016-Feb-04 22:33N 53°31' W 003°15'9 9.0
2016-Feb-04 21:33N 53°27' W 003°01'0 0.4
2016-Feb-04 20:32N 53°27' W 003°01'0 0.0
2016-Feb-04 19:31N 53°27' W 003°01'0 0.0
2016-Feb-04 18:28N 53°27' W 003°01'0 0.0
2016-Feb-04 17:33N 53°27' W 003°01'0 0.2
2016-Feb-04 16:33N 53°27' W 003°01'4 3.7
2016-Feb-04 15:33N 53°30' W 003°06'1716.9
2016-Feb-04 14:33N 53°32' W 003°34'1918.6
2016-Feb-04 13:33N 53°33' W 004°05'13 1.0
2016-Feb-03 23:32N 53°33' W 003°43'1818.5
2016-Feb-03 22:33N 53°31' W 003°12'8 8.1
2016-Feb-03 21:33N 53°27' W 003°01'0 0.4
2016-Feb-03 20:32N 53°27' W 003°01'0 0.0
2016-Feb-03 19:29N 53°27' W 003°01'0 0.0
2016-Feb-03 18:32N 53°27' W 003°01'0 0.0
2016-Feb-03 17:31N 53°27' W 003°01'0 0.5
2016-Feb-03 16:33N 53°27' W 003°01'8 7.9
2016-Feb-03 15:33N 53°31' W 003°12'2020.4
2016-Feb-03 14:33N 53°31' W 003°47'3 0.2
2016-Feb-03 00:03N 53°33' W 003°51'917.7
2016-Feb-02 23:33N 53°33' W 003°37'1717.4
2016-Feb-02 22:33N 53°31' W 003°08'6 5.7
2016-Feb-02 21:33N 53°27' W 003°01'0 0.3
2016-Feb-02 20:33N 53°27' W 003°01'0 0.0
2016-Feb-02 19:30N 53°27' W 003°01'0 0.0
2016-Feb-02 18:29N 53°27' W 003°01'0 0.0
2016-Feb-02 17:32N 53°27' W 003°01'0 0.4
2016-Feb-02 16:33N 53°27' W 003°01'7 6.8
2016-Feb-02 15:33N 53°32' W 003°09'2019.8
2016-Feb-02 14:33N 53°31' W 003°42'3 0.1
2016-Jan-31 23:31N 53°33' W 003°47'1717.9
2016-Jan-31 22:33N 53°32' W 003°18'1111.1
2016-Jan-31 21:33N 53°27' W 003°01'0 0.4
2016-Jan-31 20:33N 53°27' W 003°01'0 0.0
2016-Jan-31 19:32N 53°27' W 003°01'0 0.0
2016-Jan-31 18:29N 53°27' W 003°01'0 0.0
2016-Jan-31 17:32N 53°27' W 003°01'0 0.0
2016-Jan-31 16:28N 53°27' W 003°01'0 0.0
2016-Jan-31 15:31N 53°27' W 003°01'0 0.0
2016-Jan-31 14:30N 53°27' W 003°01'0 0.0
2016-Jan-31 13:33N 53°27' W 003°01'0 0.0
2016-Jan-31 12:32N 53°27' W 003°01'0 0.0
2016-Jan-31 11:32N 53°27' W 003°01'0 0.0
2016-Jan-31 10:32N 53°27' W 003°01'0 0.0
2016-Jan-31 09:31N 53°27' W 003°01'0 0.0
2016-Jan-31 08:31N 53°27' W 003°01'0 0.0
2016-Jan-31 07:33N 53°27' W 003°01'0 0.0
2016-Jan-31 06:33N 53°27' W 003°01'0 0.3
2016-Jan-31 05:33N 53°27' W 003°01'6 5.7
2016-Jan-31 04:33N 53°31' W 003°08'1616.3
2016-Jan-31 03:33N 53°31' W 003°35'1514.7
2016-Jan-31 02:33N 53°33' W 003°60'9 0.7
2016-Jan-30 12:17N 53°33' W 003°44'1216.7
2016-Jan-30 11:33N 53°32' W 003°23'1212.3
2016-Jan-30 10:33N 53°28' W 003°04'2 1.8
2016-Jan-30 09:32N 53°27' W 003°01'0 0.0
2016-Jan-30 08:31N 53°27' W 003°01'0 0.0
2016-Jan-30 07:32N 53°27' W 003°01'0 0.0
2016-Jan-30 06:33N 53°27' W 003°01'0 0.0
2016-Jan-30 05:33N 53°27' W 003°01'1 0.6
2016-Jan-30 04:33N 53°27' W 003°01'1414.4
2016-Jan-30 03:33N 53°32' W 003°24'1716.7
2016-Jan-30 02:33N 53°32' W 003°52'5 0.3
2016-Jan-29 12:22N 53°33' W 003°44'1518.5
2016-Jan-29 11:33N 53°32' W 003°19'1211.8
2016-Jan-29 10:33N 53°27' W 003°01'0 0.4
2016-Jan-29 09:31N 53°27' W 003°01'0 0.0
2016-Jan-29 08:33N 53°27' W 003°01'0 0.0
2016-Jan-29 07:27N 53°27' W 003°01'0 0.0
2016-Jan-29 06:33N 53°27' W 003°01'1 0.7
2016-Jan-29 05:33N 53°27' W 003°02'1211.6
2016-Jan-29 04:33N 53°31' W 003°20'1515.3
2016-Jan-29 03:33N 53°32' W 003°46'2 0.2
2016-Jan-28 14:33N 53°34' W 003°46'2019.8
2016-Jan-28 13:33N 53°31' W 003°13'9 9.1
2016-Jan-28 12:33N 53°26' W 003°01'1 1.0
2016-Jan-28 11:33N 53°27' W 003°01'0 0.2
2016-Jan-28 10:33N 53°27' W 003°01'0 0.0
2016-Jan-28 09:32N 53°27' W 003°01'0 0.0
2016-Jan-28 08:32N 53°27' W 003°01'1 1.2
2016-Jan-28 07:33N 53°28' W 003°03'7 6.7
2016-Jan-28 06:33N 53°31' W 003°12'1413.8
2016-Jan-28 05:33N 53°32' W 003°35'1413.8
2016-Jan-28 04:33N 53°33' W 003°59'  
Track history (hours):
 
Tides and Currents Weather Stations Pressure Air Temp Water Temp Dewpoint Dewpoint Depression Visibility Wind Speed Wind Dir Waves Ship Positions

Norbank

Operator: P & O Ferries

Last reported at 2016-Feb-06 23:33 UTC. Time now 2016-Feb-07 23:46 UTC.
Position N 53°33' W 003°50'.

Length 167 m; draft 5.6 m.

Type: Ship (hazmat cat A). MMSI: 246213000.

Date/timePositionNaut miles runAvg speedWind from/ knotsBaromVisibWave heightAir tempDewpointWater temp
2016-Feb-06 23:33N 53°33' W 003°50'1615.5
2016-Feb-06 22:33N 53°33' W 003°23'1414.4
2016-Feb-06 21:33N 53°27' W 003°01'1 0.5
2016-Feb-06 20:33N 53°27' W 003°01'0 0.0
2016-Feb-06 19:33N 53°27' W 003°01'0 0.0
2016-Feb-06 18:33N 53°27' W 003°01'0 0.0
2016-Feb-06 17:33N 53°27' W 003°01'0 0.4
2016-Feb-06 16:31N 53°27' W 003°01'6 5.7
2016-Feb-06 15:33N 53°31' W 003°07'1716.6
2016-Feb-06 14:33N 53°32' W 003°35'1918.6
2016-Feb-06 13:33N 53°34' W 004°06'12 0.8
2016-Feb-05 23:33N 53°34' W 003°46'1717.0
2016-Feb-05 22:33N 53°32' W 003°18'1111.2
2016-Feb-05 21:34N 53°27' W 003°01'0 0.4
2016-Feb-05 20:33N 53°27' W 003°01'0 0.0
2016-Feb-05 19:33N 53°27' W 003°01'0 0.0
2016-Feb-05 18:33N 53°27' W 003°01'0 0.0
2016-Feb-05 17:33N 53°27' W 003°01'0 0.2
2016-Feb-05 16:33N 53°27' W 003°01'4 4.2
2016-Feb-05 15:33N 53°30' W 003°06'1717.0
2016-Feb-05 14:33N 53°32' W 003°35'2019.6
2016-Feb-05 13:32N 53°35' W 004°08'15 1.0
2016-Feb-04 23:33N 53°33' W 003°43'1717.4
2016-Feb-04 22:33N 53°31' W 003°15'9 9.0
2016-Feb-04 21:33N 53°27' W 003°01'0 0.4
2016-Feb-04 20:32N 53°27' W 003°01'0 0.0
2016-Feb-04 19:31N 53°27' W 003°01'0 0.0
2016-Feb-04 18:28N 53°27' W 003°01'0 0.0
2016-Feb-04 17:33N 53°27' W 003°01'0 0.2
2016-Feb-04 16:33N 53°27' W 003°01'4 3.7
2016-Feb-04 15:33N 53°30' W 003°06'1716.9
2016-Feb-04 14:33N 53°32' W 003°34'1918.6
2016-Feb-04 13:33N 53°33' W 004°05'13 1.0
2016-Feb-03 23:32N 53°33' W 003°43'1818.5
2016-Feb-03 22:33N 53°31' W 003°12'8 8.1
2016-Feb-03 21:33N 53°27' W 003°01'0 0.4
2016-Feb-03 20:32N 53°27' W 003°01'0 0.0
2016-Feb-03 19:29N 53°27' W 003°01'0 0.0
2016-Feb-03 18:32N 53°27' W 003°01'0 0.0
2016-Feb-03 17:31N 53°27' W 003°01'0 0.5
2016-Feb-03 16:33N 53°27' W 003°01'8 7.9
2016-Feb-03 15:33N 53°31' W 003°12'2020.4
2016-Feb-03 14:33N 53°31' W 003°47'3 0.2
2016-Feb-03 00:03N 53°33' W 003°51'917.7
2016-Feb-02 23:33N 53°33' W 003°37'1717.4
2016-Feb-02 22:33N 53°31' W 003°08'6 5.7
2016-Feb-02 21:33N 53°27' W 003°01'0 0.3
2016-Feb-02 20:33N 53°27' W 003°01'0 0.0
2016-Feb-02 19:30N 53°27' W 003°01'0 0.0
2016-Feb-02 18:29N 53°27' W 003°01'0 0.0
2016-Feb-02 17:32N 53°27' W 003°01'0 0.4
2016-Feb-02 16:33N 53°27' W 003°01'7 6.8
2016-Feb-02 15:33N 53°32' W 003°09'2019.8
2016-Feb-02 14:33N 53°31' W 003°42'3 0.1
2016-Jan-31 23:31N 53°33' W 003°47'1717.9
2016-Jan-31 22:33N 53°32' W 003°18'1111.1
2016-Jan-31 21:33N 53°27' W 003°01'0 0.4
2016-Jan-31 20:33N 53°27' W 003°01'0 0.0
2016-Jan-31 19:32N 53°27' W 003°01'0 0.0
2016-Jan-31 18:29N 53°27' W 003°01'0 0.0
2016-Jan-31 17:32N 53°27' W 003°01'0 0.0
2016-Jan-31 16:28N 53°27' W 003°01'0 0.0
2016-Jan-31 15:31N 53°27' W 003°01'0 0.0
2016-Jan-31 14:30N 53°27' W 003°01'0 0.0
2016-Jan-31 13:33N 53°27' W 003°01'0 0.0
2016-Jan-31 12:32N 53°27' W 003°01'0 0.0
2016-Jan-31 11:32N 53°27' W 003°01'0 0.0
2016-Jan-31 10:32N 53°27' W 003°01'0 0.0
2016-Jan-31 09:31N 53°27' W 003°01'0 0.0
2016-Jan-31 08:31N 53°27' W 003°01'0 0.0
2016-Jan-31 07:33N 53°27' W 003°01'0 0.0
2016-Jan-31 06:33N 53°27' W 003°01'0 0.3
2016-Jan-31 05:33N 53°27' W 003°01'6 5.7
2016-Jan-31 04:33N 53°31' W 003°08'1616.3
2016-Jan-31 03:33N 53°31' W 003°35'1514.7
2016-Jan-31 02:33N 53°33' W 003°60'9 0.7
2016-Jan-30 12:17N 53°33' W 003°44'1216.7
2016-Jan-30 11:33N 53°32' W 003°23'1212.3
2016-Jan-30 10:33N 53°28' W 003°04'2 1.8
2016-Jan-30 09:32N 53°27' W 003°01'0 0.0
2016-Jan-30 08:31N 53°27' W 003°01'0 0.0
2016-Jan-30 07:32N 53°27' W 003°01'0 0.0
2016-Jan-30 06:33N 53°27' W 003°01'0 0.0
2016-Jan-30 05:33N 53°27' W 003°01'1 0.6
2016-Jan-30 04:33N 53°27' W 003°01'1414.4
2016-Jan-30 03:33N 53°32' W 003°24'1716.7
2016-Jan-30 02:33N 53°32' W 003°52'5 0.3
2016-Jan-29 12:22N 53°33' W 003°44'1518.5
2016-Jan-29 11:33N 53°32' W 003°19'1211.8
2016-Jan-29 10:33N 53°27' W 003°01'0 0.4
2016-Jan-29 09:31N 53°27' W 003°01'0 0.0
2016-Jan-29 08:33N 53°27' W 003°01'0 0.0
2016-Jan-29 07:27N 53°27' W 003°01'0 0.0
2016-Jan-29 06:33N 53°27' W 003°01'1 0.7
2016-Jan-29 05:33N 53°27' W 003°02'1211.6
2016-Jan-29 04:33N 53°31' W 003°20'1515.3
2016-Jan-29 03:33N 53°32' W 003°46'2 0.2
2016-Jan-28 14:33N 53°34' W 003°46'2019.8
2016-Jan-28 13:33N 53°31' W 003°13'9 9.1
2016-Jan-28 12:33N 53°26' W 003°01'1 1.0
2016-Jan-28 11:33N 53°27' W 003°01'0 0.2
2016-Jan-28 10:33N 53°27' W 003°01'0 0.0
2016-Jan-28 09:32N 53°27' W 003°01'0 0.0
2016-Jan-28 08:32N 53°27' W 003°01'1 1.2
2016-Jan-28 07:33N 53°28' W 003°03'7 6.7
2016-Jan-28 06:33N 53°31' W 003°12'1413.8
2016-Jan-28 05:33N 53°32' W 003°35'1413.8
2016-Jan-28 04:33N 53°33' W 003°59'  

Dump ship's entire track history